Terminal Aerodrome Forecast
Issued by NWS

Home | Current Version | Previous Version | Text Only | Print | Product List | Glossary On
Versions: 1 2 3 4 5 6 7 8 9 10 11 12 13 14
000
FTUS44 KBMX 292338
TAFTOI
TAF
KTOI 292338Z 3000/3024 27003KT P6SM VCSH SCT040 SCT100
     FM300200 00000KT P6SM SCT100
      TEMPO 3009/3012 4SM BR
     FM301500 02007KT P6SM SCT040 SCT200
     FM301800 34008KT P6SM VCTS SCT040CB=

USA.gov is the U.S. government's official web portal to all federal, state and local government web resources and services.